sensor_id;sensor_type;location;lat;lon;timestamp;pressure;altitude;pressure_sealevel;temperature;humidity
23059;BME280;30585;51.502;7.218;2024-01-11T00:02:12;102217.91;;;-7.53;80.43
23059;BME280;30585;51.502;7.218;2024-01-11T00:04:40;102217.72;;;-7.59;80.63
23059;BME280;30585;51.502;7.218;2024-01-11T00:07:09;102214.16;;;-7.61;81.12
23059;BME280;30585;51.502;7.218;2024-01-11T00:09:38;102214.00;;;-7.67;81.44
23059;BME280;30585;51.502;7.218;2024-01-11T00:12:06;102215.09;;;-7.59;82.01
23059;BME280;30585;51.502;7.218;2024-01-11T00:14:36;102217.81;;;-7.56;82.08
23059;BME280;30585;51.502;7.218;2024-01-11T00:17:03;102214.78;;;-7.71;81.87
23059;BME280;30585;51.502;7.218;2024-01-11T00:19:31;102215.50;;;-7.77;81.57
23059;BME280;30585;51.502;7.218;2024-01-11T00:21:59;102187.44;;;-7.81;81.63
23059;BME280;30585;51.502;7.218;2024-01-11T00:24:27;102207.84;;;-7.69;82.06
23059;BME280;30585;51.502;7.218;2024-01-11T00:26:55;102203.16;;;-7.81;81.11
23059;BME280;30585;51.502;7.218;2024-01-11T00:29:22;102194.28;;;-7.86;81.94
23059;BME280;30585;51.502;7.218;2024-01-11T00:31:52;102195.22;;;-7.84;81.71
23059;BME280;30585;51.502;7.218;2024-01-11T00:34:19;102199.56;;;-7.84;81.96
23059;BME280;30585;51.502;7.218;2024-01-11T00:36:48;102196.75;;;-7.92;82.11
23059;BME280;30585;51.502;7.218;2024-01-11T00:39:15;102201.34;;;-7.83;81.18
23059;BME280;30585;51.502;7.218;2024-01-11T00:41:43;102196.09;;;-7.83;81.01
23059;BME280;30585;51.502;7.218;2024-01-11T00:44:11;102197.59;;;-7.93;81.71
23059;BME280;30585;51.502;7.218;2024-01-11T00:46:39;102194.78;;;-7.99;81.80
23059;BME280;30585;51.502;7.218;2024-01-11T00:49:08;102187.56;;;-8.08;82.54
23059;BME280;30585;51.502;7.218;2024-01-11T00:51:37;102192.13;;;-8.01;81.54
23059;BME280;30585;51.502;7.218;2024-01-11T00:54:05;102193.81;;;-8.03;82.04
23059;BME280;30585;51.502;7.218;2024-01-11T00:56:32;102199.94;;;-8.02;82.44
23059;BME280;30585;51.502;7.218;2024-01-11T00:59:00;102198.03;;;-8.08;82.30
23059;BME280;30585;51.502;7.218;2024-01-11T01:01:28;102193.53;;;-8.12;82.31
23059;BME280;30585;51.502;7.218;2024-01-11T01:03:56;102195.03;;;-8.21;82.63
23059;BME280;30585;51.502;7.218;2024-01-11T01:06:25;102193.53;;;-8.13;82.75
23059;BME280;30585;51.502;7.218;2024-01-11T01:08:54;102189.00;;;-8.19;81.98
23059;BME280;30585;51.502;7.218;2024-01-11T01:11:21;102191.53;;;-8.22;82.71
23059;BME280;30585;51.502;7.218;2024-01-11T01:13:49;102206.25;;;-8.25;82.61
23059;BME280;30585;51.502;7.218;2024-01-11T01:16:17;102200.31;;;-8.20;82.32
23059;BME280;30585;51.502;7.218;2024-01-11T01:18:45;102205.13;;;-8.35;82.45
23059;BME280;30585;51.502;7.218;2024-01-11T01:21:12;102203.66;;;-8.25;82.82
23059;BME280;30585;51.502;7.218;2024-01-11T01:23:41;102196.28;;;-8.40;83.56
23059;BME280;30585;51.502;7.218;2024-01-11T01:26:09;102203.50;;;-8.30;82.71
23059;BME280;30585;51.502;7.218;2024-01-11T01:28:37;102202.66;;;-8.29;82.75
23059;BME280;30585;51.502;7.218;2024-01-11T01:31:06;102206.94;;;-8.33;82.47
23059;BME280;30585;51.502;7.218;2024-01-11T01:33:34;102211.19;;;-8.38;83.33
23059;BME280;30585;51.502;7.218;2024-01-11T01:36:02;102219.09;;;-8.36;83.95
23059;BME280;30585;51.502;7.218;2024-01-11T01:38:30;102209.47;;;-8.37;83.24
23059;BME280;30585;51.502;7.218;2024-01-11T01:40:59;102213.84;;;-8.36;83.08
23059;BME280;30585;51.502;7.218;2024-01-11T01:43:27;102211.03;;;-8.42;83.50
23059;BME280;30585;51.502;7.218;2024-01-11T01:45:54;102204.88;;;-8.44;82.53
23059;BME280;30585;51.502;7.218;2024-01-11T01:48:22;102202.25;;;-8.44;83.75
23059;BME280;30585;51.502;7.218;2024-01-11T01:50:50;102189.72;;;-8.54;82.20
23059;BME280;30585;51.502;7.218;2024-01-11T01:53:19;102194.97;;;-8.54;82.98
23059;BME280;30585;51.502;7.218;2024-01-11T01:55:47;102187.94;;;-8.55;82.52
23059;BME280;30585;51.502;7.218;2024-01-11T01:58:17;102190.72;;;-8.51;82.94
23059;BME280;30585;51.502;7.218;2024-01-11T02:00:47;102204.69;;;-8.50;81.84
23059;BME280;30585;51.502;7.218;2024-01-11T02:03:16;102205.22;;;-8.62;82.68
23059;BME280;30585;51.502;7.218;2024-01-11T02:05:44;102206.09;;;-8.61;82.35
23059;BME280;30585;51.502;7.218;2024-01-11T02:08:16;102206.19;;;-8.58;83.09
23059;BME280;30585;51.502;7.218;2024-01-11T02:10:44;102200.88;;;-8.61;83.64
23059;BME280;30585;51.502;7.218;2024-01-11T02:13:13;102208.66;;;-8.63;83.12
23059;BME280;30585;51.502;7.218;2024-01-11T02:15:43;102204.81;;;-8.74;82.99
23059;BME280;30585;51.502;7.218;2024-01-11T02:18:11;102207.38;;;-8.76;83.73
23059;BME280;30585;51.502;7.218;2024-01-11T02:20:39;102204.56;;;-8.83;83.13
23059;BME280;30585;51.502;7.218;2024-01-11T02:23:17;102199.59;;;-8.74;83.22
23059;BME280;30585;51.502;7.218;2024-01-11T02:25:48;102193.75;;;-8.66;83.44
23059;BME280;30585;51.502;7.218;2024-01-11T02:28:15;102206.66;;;-8.72;82.33
23059;BME280;30585;51.502;7.218;2024-01-11T02:30:43;102210.69;;;-8.83;83.26
23059;BME280;30585;51.502;7.218;2024-01-11T02:33:11;102205.50;;;-8.81;83.31
23059;BME280;30585;51.502;7.218;2024-01-11T02:35:43;102205.34;;;-8.86;83.67
23059;BME280;30585;51.502;7.218;2024-01-11T02:38:13;102214.28;;;-8.78;82.56
23059;BME280;30585;51.502;7.218;2024-01-11T02:40:41;102212.34;;;-8.85;82.73
23059;BME280;30585;51.502;7.218;2024-01-11T02:43:10;102215.03;;;-8.83;82.51
23059;BME280;30585;51.502;7.218;2024-01-11T02:45:38;102216.59;;;-8.88;82.69
23059;BME280;30585;51.502;7.218;2024-01-11T02:48:06;102215.28;;;-9.01;82.79
23059;BME280;30585;51.502;7.218;2024-01-11T02:50:34;102213.03;;;-8.90;83.02
23059;BME280;30585;51.502;7.218;2024-01-11T02:53:02;102205.03;;;-8.95;82.92
23059;BME280;30585;51.502;7.218;2024-01-11T02:55:30;102218.78;;;-9.01;82.90
23059;BME280;30585;51.502;7.218;2024-01-11T02:57:57;102217.19;;;-8.97;82.91
23059;BME280;30585;51.502;7.218;2024-01-11T03:00:26;102210.22;;;-8.97;83.41
23059;BME280;30585;51.502;7.218;2024-01-11T03:02:54;102200.28;;;-9.08;83.78
23059;BME280;30585;51.502;7.218;2024-01-11T03:05:22;102205.44;;;-9.10;83.12
23059;BME280;30585;51.502;7.218;2024-01-11T03:07:50;102203.66;;;-9.11;83.44
23059;BME280;30585;51.502;7.218;2024-01-11T03:10:18;102226.56;;;-9.04;83.66
23059;BME280;30585;51.502;7.218;2024-01-11T03:12:45;102218.06;;;-8.97;83.43
23059;BME280;30585;51.502;7.218;2024-01-11T03:15:15;102210.06;;;-9.01;82.66
23059;BME280;30585;51.502;7.218;2024-01-11T03:17:44;102200.38;;;-9.05;83.12
23059;BME280;30585;51.502;7.218;2024-01-11T03:20:12;102201.75;;;-9.16;83.23
23059;BME280;30585;51.502;7.218;2024-01-11T03:22:45;102206.84;;;-9.19;83.61
23059;BME280;30585;51.502;7.218;2024-01-11T03:25:13;102213.66;;;-9.24;83.31
23059;BME280;30585;51.502;7.218;2024-01-11T03:27:41;102219.88;;;-9.21;83.18
23059;BME280;30585;51.502;7.218;2024-01-11T03:30:09;102210.56;;;-9.13;83.69
23059;BME280;30585;51.502;7.218;2024-01-11T03:32:37;102217.91;;;-9.28;83.63
23059;BME280;30585;51.502;7.218;2024-01-11T03:35:07;102229.28;;;-9.26;84.13
23059;BME280;30585;51.502;7.218;2024-01-11T03:37:35;102215.09;;;-9.34;83.36
23059;BME280;30585;51.502;7.218;2024-01-11T03:40:03;102223.97;;;-9.29;83.18
23059;BME280;30585;51.502;7.218;2024-01-11T03:42:31;102230.19;;;-9.25;83.87
23059;BME280;30585;51.502;7.218;2024-01-11T03:44:59;102238.13;;;-9.22;83.76
23059;BME280;30585;51.502;7.218;2024-01-11T03:47:27;102241.56;;;-9.23;83.31
23059;BME280;30585;51.502;7.218;2024-01-11T03:49:54;102239.63;;;-9.30;83.86
23059;BME280;30585;51.502;7.218;2024-01-11T03:52:23;102216.25;;;-9.51;84.99
23059;BME280;30585;51.502;7.218;2024-01-11T03:54:51;102228.94;;;-9.37;84.32
23059;BME280;30585;51.502;7.218;2024-01-11T03:57:19;102236.94;;;-9.32;83.84
23059;BME280;30585;51.502;7.218;2024-01-11T03:59:47;102244.94;;;-9.27;83.88
23059;BME280;30585;51.502;7.218;2024-01-11T04:02:15;102244.56;;;-9.38;83.51
23059;BME280;30585;51.502;7.218;2024-01-11T04:04:43;102250.84;;;-9.33;84.19
23059;BME280;30585;51.502;7.218;2024-01-11T04:07:10;102249.03;;;-9.36;84.33
23059;BME280;30585;51.502;7.218;2024-01-11T04:09:40;102241.91;;;-9.40;84.83
23059;BME280;30585;51.502;7.218;2024-01-11T04:12:08;102235.91;;;-9.37;84.51
23059;BME280;30585;51.502;7.218;2024-01-11T04:14:38;102237.72;;;-9.35;84.56
23059;BME280;30585;51.502;7.218;2024-01-11T04:17:06;102258.63;;;-9.35;84.68
23059;BME280;30585;51.502;7.218;2024-01-11T04:19:34;102240.50;;;-9.30;85.47
23059;BME280;30585;51.502;7.218;2024-01-11T04:22:02;102233.66;;;-9.26;84.87
23059;BME280;30585;51.502;7.218;2024-01-11T04:24:30;102238.00;;;-9.27;84.58
23059;BME280;30585;51.502;7.218;2024-01-11T04:26:59;102241.28;;;-9.33;85.08
23059;BME280;30585;51.502;7.218;2024-01-11T04:29:26;102257.69;;;-9.37;84.58
23059;BME280;30585;51.502;7.218;2024-01-11T04:31:54;102245.78;;;-9.28;84.10
23059;BME280;30585;51.502;7.218;2024-01-11T04:34:22;102253.53;;;-9.32;83.86
23059;BME280;30585;51.502;7.218;2024-01-11T04:36:50;102257.03;;;-9.31;83.69
23059;BME280;30585;51.502;7.218;2024-01-11T04:39:17;102254.34;;;-9.33;83.57
23059;BME280;30585;51.502;7.218;2024-01-11T04:41:45;102244.47;;;-9.41;83.43
23059;BME280;30585;51.502;7.218;2024-01-11T04:44:14;102242.47;;;-9.48;83.89
23059;BME280;30585;51.502;7.218;2024-01-11T04:46:43;102245.97;;;-9.48;83.33
23059;BME280;30585;51.502;7.218;2024-01-11T04:49:11;102250.41;;;-9.45;83.37
23059;BME280;30585;51.502;7.218;2024-01-11T04:51:38;102255.34;;;-9.54;83.85
23059;BME280;30585;51.502;7.218;2024-01-11T04:54:07;102280.53;;;-9.56;84.60
23059;BME280;30585;51.502;7.218;2024-01-11T04:56:35;102271.81;;;-9.57;84.30
23059;BME280;30585;51.502;7.218;2024-01-11T04:59:03;102271.25;;;-9.47;84.50
23059;BME280;30585;51.502;7.218;2024-01-11T05:01:32;102273.00;;;-9.47;83.93
23059;BME280;30585;51.502;7.218;2024-01-11T05:03:59;102286.94;;;-9.47;84.36
23059;BME280;30585;51.502;7.218;2024-01-11T05:06:27;102283.41;;;-9.49;85.11
23059;BME280;30585;51.502;7.218;2024-01-11T05:08:56;102280.22;;;-9.40;85.25
23059;BME280;30585;51.502;7.218;2024-01-11T05:11:24;102281.16;;;-9.38;85.06
23059;BME280;30585;51.502;7.218;2024-01-11T05:13:53;102279.22;;;-9.44;84.06
23059;BME280;30585;51.502;7.218;2024-01-11T05:16:21;102294.19;;;-9.40;84.57
23059;BME280;30585;51.502;7.218;2024-01-11T05:18:52;102292.34;;;-9.42;84.77
23059;BME280;30585;51.502;7.218;2024-01-11T05:21:21;102296.06;;;-9.36;85.49
23059;BME280;30585;51.502;7.218;2024-01-11T05:23:49;102281.28;;;-9.35;84.87
23059;BME280;30585;51.502;7.218;2024-01-11T05:26:18;102278.81;;;-9.30;83.89
23059;BME280;30585;51.502;7.218;2024-01-11T05:28:46;102280.16;;;-9.42;84.61
23059;BME280;30585;51.502;7.218;2024-01-11T05:31:15;102300.97;;;-9.45;84.87
23059;BME280;30585;51.502;7.218;2024-01-11T05:33:43;102295.53;;;-9.51;84.72
23059;BME280;30585;51.502;7.218;2024-01-11T05:36:13;102298.28;;;-9.46;85.09
23059;BME280;30585;51.502;7.218;2024-01-11T05:38:41;102306.06;;;-9.48;85.38
23059;BME280;30585;51.502;7.218;2024-01-11T05:41:09;102310.59;;;-9.44;85.39
23059;BME280;30585;51.502;7.218;2024-01-11T05:43:37;102310.59;;;-9.44;84.98
23059;BME280;30585;51.502;7.218;2024-01-11T05:46:05;102311.31;;;-9.48;85.08
23059;BME280;30585;51.502;7.218;2024-01-11T05:48:33;102307.84;;;-9.47;84.62
23059;BME280;30585;51.502;7.218;2024-01-11T05:51:01;102301.00;;;-9.43;84.60
23059;BME280;30585;51.502;7.218;2024-01-11T05:53:30;102310.47;;;-9.47;85.08
23059;BME280;30585;51.502;7.218;2024-01-11T05:56:02;102307.06;;;-9.44;85.15
23059;BME280;30585;51.502;7.218;2024-01-11T05:58:34;102300.06;;;-9.45;85.24
23059;BME280;30585;51.502;7.218;2024-01-11T06:01:03;102300.97;;;-9.45;85.31
23059;BME280;30585;51.502;7.218;2024-01-11T06:03:31;102301.06;;;-9.42;84.96
23059;BME280;30585;51.502;7.218;2024-01-11T06:06:01;102297.41;;;-9.47;84.64
23059;BME280;30585;51.502;7.218;2024-01-11T06:08:31;102297.25;;;-9.51;84.49
23059;BME280;30585;51.502;7.218;2024-01-11T06:10:58;102283.38;;;-9.50;84.19
23059;BME280;30585;51.502;7.218;2024-01-11T06:13:26;102284.91;;;-9.55;84.78
23059;BME280;30585;51.502;7.218;2024-01-11T06:15:55;102275.41;;;-9.53;84.02
23059;BME280;30585;51.502;7.218;2024-01-11T06:18:22;102269.97;;;-9.59;83.95
23059;BME280;30585;51.502;7.218;2024-01-11T06:20:50;102290.88;;;-9.59;84.46
23059;BME280;30585;51.502;7.218;2024-01-11T06:23:18;102288.31;;;-9.58;85.48
23059;BME280;30585;51.502;7.218;2024-01-11T06:25:48;102296.91;;;-9.60;85.48
23059;BME280;30585;51.502;7.218;2024-01-11T06:28:15;102276.91;;;-9.60;84.05
23059;BME280;30585;51.502;7.218;2024-01-11T06:30:43;102278.53;;;-9.63;84.46
23059;BME280;30585;51.502;7.218;2024-01-11T06:33:11;102282.97;;;-9.61;84.27
23059;BME280;30585;51.502;7.218;2024-01-11T06:35:40;102293.41;;;-9.61;84.40
23059;BME280;30585;51.502;7.218;2024-01-11T06:38:07;102315.69;;;-9.72;85.04
23059;BME280;30585;51.502;7.218;2024-01-11T06:40:35;102326.19;;;-9.69;85.49
23059;BME280;30585;51.502;7.218;2024-01-11T06:43:05;102325.38;;;-9.68;85.63
23059;BME280;30585;51.502;7.218;2024-01-11T06:45:32;102326.56;;;-9.60;86.43
23059;BME280;30585;51.502;7.218;2024-01-11T06:48:00;102316.00;;;-9.63;86.90
23059;BME280;30585;51.502;7.218;2024-01-11T06:50:28;102291.94;;;-9.54;85.96
23059;BME280;30585;51.502;7.218;2024-01-11T06:52:56;102290.09;;;-9.57;85.57
23059;BME280;30585;51.502;7.218;2024-01-11T06:55:24;102299.75;;;-9.54;86.08
23059;BME280;30585;51.502;7.218;2024-01-11T06:57:51;102300.78;;;-9.51;86.55
23059;BME280;30585;51.502;7.218;2024-01-11T07:00:21;102301.72;;;-9.49;85.72
23059;BME280;30585;51.502;7.218;2024-01-11T07:02:49;102311.22;;;-9.51;86.15
23059;BME280;30585;51.502;7.218;2024-01-11T07:05:17;102303.09;;;-9.58;86.05
23059;BME280;30585;51.502;7.218;2024-01-11T07:07:45;102321.66;;;-9.51;85.85
23059;BME280;30585;51.502;7.218;2024-01-11T07:10:12;102335.09;;;-9.40;86.48
23059;BME280;30585;51.502;7.218;2024-01-11T07:12:40;102337.78;;;-9.39;86.06
23059;BME280;30585;51.502;7.218;2024-01-11T07:15:10;102340.34;;;-9.40;86.26
23059;BME280;30585;51.502;7.218;2024-01-11T07:17:39;102350.91;;;-9.37;86.32
23059;BME280;30585;51.502;7.218;2024-01-11T07:20:08;102357.91;;;-9.36;86.42
23059;BME280;30585;51.502;7.218;2024-01-11T07:22:37;102356.91;;;-9.40;86.62
23059;BME280;30585;51.502;7.218;2024-01-11T07:25:08;102349.91;;;-9.41;86.60
23059;BME280;30585;51.502;7.218;2024-01-11T07:27:36;102346.56;;;-9.37;86.25
23059;BME280;30585;51.502;7.218;2024-01-11T07:30:06;102349.34;;;-9.32;86.10
23059;BME280;30585;51.502;7.218;2024-01-11T07:32:35;102337.06;;;-9.35;85.15
23059;BME280;30585;51.502;7.218;2024-01-11T07:35:05;102333.00;;;-9.26;85.43
23059;BME280;30585;51.502;7.218;2024-01-11T07:37:39;102336.53;;;-9.24;85.11
23059;BME280;30585;51.502;7.218;2024-01-11T07:40:08;102334.66;;;-9.28;85.27
23059;BME280;30585;51.502;7.218;2024-01-11T07:42:37;102338.13;;;-9.29;84.97
23059;BME280;30585;51.502;7.218;2024-01-11T07:45:06;102338.00;;;-9.33;85.69
23059;BME280;30585;51.502;7.218;2024-01-11T07:47:35;102338.06;;;-9.31;85.94
23059;BME280;30585;51.502;7.218;2024-01-11T07:50:06;102333.66;;;-9.32;85.59
23059;BME280;30585;51.502;7.218;2024-01-11T07:52:36;102346.06;;;-9.26;85.47
23059;BME280;30585;51.502;7.218;2024-01-11T07:55:04;102329.28;;;-9.33;84.95
23059;BME280;30585;51.502;7.218;2024-01-11T07:57:34;102299.28;;;-9.43;85.76
23059;BME280;30585;51.502;7.218;2024-01-11T08:00:02;102330.56;;;-9.20;85.75
23059;BME280;30585;51.502;7.218;2024-01-11T08:02:33;102319.13;;;-9.24;85.69
23059;BME280;30585;51.502;7.218;2024-01-11T08:05:01;102325.09;;;-9.28;86.21
23059;BME280;30585;51.502;7.218;2024-01-11T08:07:30;102319.28;;;-9.19;85.80
23059;BME280;30585;51.502;7.218;2024-01-11T08:09:58;102324.50;;;-9.19;85.85
23059;BME280;30585;51.502;7.218;2024-01-11T08:12:26;102326.34;;;-9.17;86.17
23059;BME280;30585;51.502;7.218;2024-01-11T08:14:53;102326.41;;;-9.15;86.53
23059;BME280;30585;51.502;7.218;2024-01-11T08:17:22;102329.22;;;-9.09;86.32
23059;BME280;30585;51.502;7.218;2024-01-11T08:19:51;102330.03;;;-9.12;86.34
23059;BME280;30585;51.502;7.218;2024-01-11T08:22:18;102337.31;;;-9.02;86.29
23059;BME280;30585;51.502;7.218;2024-01-11T08:24:53;102343.59;;;-8.97;86.48
23059;BME280;30585;51.502;7.218;2024-01-11T08:27:22;102341.16;;;-8.92;87.22
23059;BME280;30585;51.502;7.218;2024-01-11T08:29:50;102345.00;;;-8.81;88.00
23059;BME280;30585;51.502;7.218;2024-01-11T08:32:17;102343.75;;;-8.67;88.14
23059;BME280;30585;51.502;7.218;2024-01-11T08:34:57;102342.31;;;-8.57;88.18
23059;BME280;30585;51.502;7.218;2024-01-11T08:37:25;102359.94;;;-8.51;88.02
23059;BME280;30585;51.502;7.218;2024-01-11T08:39:54;102361.19;;;-8.40;88.41
23059;BME280;30585;51.502;7.218;2024-01-11T08:42:22;102361.38;;;-8.34;88.42
23059;BME280;30585;51.502;7.218;2024-01-11T08:44:50;102365.19;;;-8.23;87.83
23059;BME280;30585;51.502;7.218;2024-01-11T08:47:18;102366.25;;;-8.18;87.92
23059;BME280;30585;51.502;7.218;2024-01-11T08:49:46;102378.91;;;-8.03;87.34
23059;BME280;30585;51.502;7.218;2024-01-11T08:52:13;102370.50;;;-7.93;87.42
23059;BME280;30585;51.502;7.218;2024-01-11T08:54:41;102371.66;;;-7.83;87.23
23059;BME280;30585;51.502;7.218;2024-01-11T08:57:10;102376.16;;;-7.79;87.30
23059;BME280;30585;51.502;7.218;2024-01-11T08:59:38;102390.38;;;-7.71;87.52
23059;BME280;30585;51.502;7.218;2024-01-11T09:02:05;102380.69;;;-7.74;87.25
23059;BME280;30585;51.502;7.218;2024-01-11T09:04:43;102366.13;;;-7.64;86.56
23059;BME280;30585;51.502;7.218;2024-01-11T09:07:11;102375.19;;;-7.53;86.55
23059;BME280;30585;51.502;7.218;2024-01-11T09:09:39;102375.63;;;-7.38;86.30
23059;BME280;30585;51.502;7.218;2024-01-11T09:12:20;102379.34;;;-7.30;86.76
23059;BME280;30585;51.502;7.218;2024-01-11T09:14:49;102385.09;;;-7.11;85.91
23059;BME280;30585;51.502;7.218;2024-01-11T09:17:16;102387.06;;;-7.04;85.42
23059;BME280;30585;51.502;7.218;2024-01-11T09:19:44;102385.59;;;-6.93;85.21
23059;BME280;30585;51.502;7.218;2024-01-11T09:22:12;102390.34;;;-6.80;85.23
23059;BME280;30585;51.502;7.218;2024-01-11T09:24:40;102392.38;;;-6.68;85.17
23059;BME280;30585;51.502;7.218;2024-01-11T09:27:07;102392.56;;;-6.62;84.15
23059;BME280;30585;51.502;7.218;2024-01-11T09:29:37;102391.09;;;-6.49;83.97
23059;BME280;30585;51.502;7.218;2024-01-11T09:32:09;102393.16;;;-6.38;82.87
23059;BME280;30585;51.502;7.218;2024-01-11T09:34:37;102387.19;;;-6.31;83.41
23059;BME280;30585;51.502;7.218;2024-01-11T09:37:05;102385.66;;;-6.23;83.05
23059;BME280;30585;51.502;7.218;2024-01-11T09:39:32;102400.03;;;-6.07;82.65
23059;BME280;30585;51.502;7.218;2024-01-11T09:42:06;102330.22;;;-6.35;82.58
23059;BME280;30585;51.502;7.218;2024-01-11T09:44:37;102397.84;;;-5.86;82.42
23059;BME280;30585;51.502;7.218;2024-01-11T09:47:06;102402.53;;;-5.74;83.04
23059;BME280;30585;51.502;7.218;2024-01-11T09:49:41;102400.22;;;-5.59;81.02
23059;BME280;30585;51.502;7.218;2024-01-11T09:52:11;102414.47;;;-5.49;80.95
23059;BME280;30585;51.502;7.218;2024-01-11T09:54:41;102417.34;;;-5.37;81.72
23059;BME280;30585;51.502;7.218;2024-01-11T09:57:09;102425.53;;;-5.23;81.67
23059;BME280;30585;51.502;7.218;2024-01-11T09:59:39;102416.00;;;-5.17;79.39
23059;BME280;30585;51.502;7.218;2024-01-11T10:02:10;102410.09;;;-5.06;78.71
23059;BME280;30585;51.502;7.218;2024-01-11T10:04:41;102415.56;;;-4.94;79.21
23059;BME280;30585;51.502;7.218;2024-01-11T10:07:09;102415.72;;;-4.87;78.74
23059;BME280;30585;51.502;7.218;2024-01-11T10:09:38;102413.25;;;-4.79;78.49
23059;BME280;30585;51.502;7.218;2024-01-11T10:12:06;102414.38;;;-4.65;77.37
23059;BME280;30585;51.502;7.218;2024-01-11T10:14:35;102424.22;;;-4.56;78.54
23059;BME280;30585;51.502;7.218;2024-01-11T10:17:05;102432.38;;;-4.41;77.02
23059;BME280;30585;51.502;7.218;2024-01-11T10:19:33;102426.28;;;-4.38;77.68
23059;BME280;30585;51.502;7.218;2024-01-11T10:22:01;102429.94;;;-4.29;77.40
23059;BME280;30585;51.502;7.218;2024-01-11T10:24:31;102438.84;;;-4.22;76.81
23059;BME280;30585;51.502;7.218;2024-01-11T10:27:01;102435.44;;;-4.17;76.47
23059;BME280;30585;51.502;7.218;2024-01-11T10:29:30;102423.25;;;-4.10;76.89
23059;BME280;30585;51.502;7.218;2024-01-11T10:31:58;102425.16;;;-4.00;75.90
23059;BME280;30585;51.502;7.218;2024-01-11T10:34:27;102431.44;;;-3.92;76.66
23059;BME280;30585;51.502;7.218;2024-01-11T10:36:56;102434.09;;;-3.90;76.01
23059;BME280;30585;51.502;7.218;2024-01-11T10:39:25;102439.47;;;-3.83;74.69
23059;BME280;30585;51.502;7.218;2024-01-11T10:42:03;102438.84;;;-3.66;74.53
23059;BME280;30585;51.502;7.218;2024-01-11T10:44:33;102407.81;;;-3.84;74.14
23059;BME280;30585;51.502;7.218;2024-01-11T10:47:02;102408.00;;;-3.70;74.39
23059;BME280;30585;51.502;7.218;2024-01-11T10:49:33;102427.69;;;-3.47;73.51
23059;BME280;30585;51.502;7.218;2024-01-11T10:52:03;102422.53;;;-3.38;73.85
23059;BME280;30585;51.502;7.218;2024-01-11T10:54:31;102426.25;;;-3.24;73.16
23059;BME280;30585;51.502;7.218;2024-01-11T10:57:02;102424.56;;;-3.16;72.50
23059;BME280;30585;51.502;7.218;2024-01-11T10:59:32;102412.34;;;-3.07;71.57
23059;BME280;30585;51.502;7.218;2024-01-11T11:02:04;102413.31;;;-3.01;70.93
23059;BME280;30585;51.502;7.218;2024-01-11T11:04:35;102411.63;;;-2.96;71.02
23059;BME280;30585;51.502;7.218;2024-01-11T11:07:05;102404.66;;;-2.86;70.91
23059;BME280;30585;51.502;7.218;2024-01-11T11:09:34;102412.72;;;-2.77;71.61
23059;BME280;30585;51.502;7.218;2024-01-11T11:12:03;102404.84;;;-2.68;71.77
23059;BME280;30585;51.502;7.218;2024-01-11T11:14:34;102403.19;;;-2.58;71.91
23059;BME280;30585;51.502;7.218;2024-01-11T11:17:03;102398.00;;;-2.48;68.48
23059;BME280;30585;51.502;7.218;2024-01-11T11:19:31;102397.19;;;-2.41;70.05
23059;BME280;30585;51.502;7.218;2024-01-11T11:22:03;102350.38;;;-2.55;68.47
23059;BME280;30585;51.502;7.218;2024-01-11T11:24:33;102400.84;;;-2.29;69.32
23059;BME280;30585;51.502;7.218;2024-01-11T11:27:01;102404.50;;;-2.12;68.58
23059;BME280;30585;51.502;7.218;2024-01-11T11:29:30;102410.72;;;-2.02;66.49
23059;BME280;30585;51.502;7.218;2024-01-11T11:31:57;102408.13;;;-1.95;66.59
23059;BME280;30585;51.502;7.218;2024-01-11T11:34:40;102409.03;;;-1.93;67.00
23059;BME280;30585;51.502;7.218;2024-01-11T11:37:10;102408.22;;;-1.84;66.43
23059;BME280;30585;51.502;7.218;2024-01-11T11:39:38;102412.66;;;-1.83;66.47
23059;BME280;30585;51.502;7.218;2024-01-11T11:42:09;102402.09;;;-1.76;66.95
23059;BME280;30585;51.502;7.218;2024-01-11T11:44:47;102398.56;;;-1.76;64.99
23059;BME280;30585;51.502;7.218;2024-01-11T11:47:20;102392.47;;;-1.64;65.65
23059;BME280;30585;51.502;7.218;2024-01-11T11:50:13;102384.53;;;-1.66;65.19
23059;BME280;30585;51.502;7.218;2024-01-11T11:52:43;102383.66;;;-1.57;64.91
23059;BME280;30585;51.502;7.218;2024-01-11T11:55:12;102384.59;;;-1.51;65.10
23059;BME280;30585;51.502;7.218;2024-01-11T11:57:42;102368.72;;;-1.49;64.80
23059;BME280;30585;51.502;7.218;2024-01-11T12:00:13;102381.06;;;-1.51;64.26
23059;BME280;30585;51.502;7.218;2024-01-11T12:02:43;102395.16;;;-1.52;64.09
23059;BME280;30585;51.502;7.218;2024-01-11T12:05:11;102398.78;;;-1.40;63.65
23059;BME280;30585;51.502;7.218;2024-01-11T12:07:39;102399.66;;;-1.41;64.13
23059;BME280;30585;51.502;7.218;2024-01-11T12:10:08;102385.53;;;-1.33;63.38
23059;BME280;30585;51.502;7.218;2024-01-11T12:12:36;102382.03;;;-1.31;63.05
23059;BME280;30585;51.502;7.218;2024-01-11T12:15:05;102378.53;;;-1.25;63.25
23059;BME280;30585;51.502;7.218;2024-01-11T12:17:34;102366.22;;;-1.17;62.68
23059;BME280;30585;51.502;7.218;2024-01-11T12:20:02;102383.00;;;-1.15;62.94
23059;BME280;30585;51.502;7.218;2024-01-11T12:22:31;102392.72;;;-1.10;62.95
23059;BME280;30585;51.502;7.218;2024-01-11T12:24:58;102386.53;;;-1.07;62.79
23059;BME280;30585;51.502;7.218;2024-01-11T12:27:28;102395.44;;;-0.93;62.51
23059;BME280;30585;51.502;7.218;2024-01-11T12:29:55;102396.31;;;-0.91;63.04
23059;BME280;30585;51.502;7.218;2024-01-11T12:32:25;102398.97;;;-0.88;61.87
23059;BME280;30585;51.502;7.218;2024-01-11T12:34:54;102390.16;;;-0.81;61.83
23059;BME280;30585;51.502;7.218;2024-01-11T12:37:22;102391.03;;;-0.79;62.83
23059;BME280;30585;51.502;7.218;2024-01-11T12:39:50;102384.88;;;-0.76;62.58
23059;BME280;30585;51.502;7.218;2024-01-11T12:42:23;102391.06;;;-0.74;60.12
23059;BME280;30585;51.502;7.218;2024-01-11T12:44:52;102405.19;;;-0.66;59.14
23059;BME280;30585;51.502;7.218;2024-01-11T12:47:24;102407.84;;;-0.64;59.19
23059;BME280;30585;51.502;7.218;2024-01-11T12:49:51;102393.72;;;-0.56;59.45
23059;BME280;30585;51.502;7.218;2024-01-11T12:52:19;102394.63;;;-0.48;59.83
23059;BME280;30585;51.502;7.218;2024-01-11T12:54:47;102404.34;;;-0.50;59.69
23059;BME280;30585;51.502;7.218;2024-01-11T12:57:17;102403.47;;;-0.40;60.16
23059;BME280;30585;51.502;7.218;2024-01-11T12:59:45;102394.63;;;-0.32;59.09